Time;durP1;ratioP1;P1;durP2;ratioP2;P2;SDS_P1;SDS_P2;PMS_P1;PMS_P2;Temp;Humidity;BMP_temperature;BMP_pressure;BME280_temperature;BME280_humidity;BME280_pressure;Samples;Min_cycle;Max_cycle;Signal;HPM_P1;HPM_P2
2022/02/09 00:00:42;;;;;;;3.38;1.23;;;;;15.90;102423.00;;;;5080500;28;20202;-84
2022/02/09 00:03:13;;;;;;;2.05;1.40;;;;;15.90;102412.00;;;;5080887;28;21455;-85
2022/02/09 00:05:46;;;;;;;2.13;1.10;;;;;15.90;102410.00;;;;5081375;28;20196;-85
2022/02/09 00:08:14;;;;;;;1.38;1.05;;;;;15.90;102407.00;;;;5067688;28;20289;-83
2022/02/09 00:10:45;;;;;;;2.17;1.00;;;;;15.90;102403.00;;;;5074007;28;20682;-85
2022/02/09 00:16:05;;;;;;;1.58;0.93;;;;;15.90;102415.00;;;;5076228;28;20683;-84
2022/02/09 00:18:41;;;;;;;1.92;1.08;;;;;15.90;102404.00;;;;5088429;28;20241;-84
2022/02/09 00:35:43;;;;;;;2.22;1.27;;;;;15.90;102406.00;;;;5026115;28;22144;-84
2022/02/09 00:41:15;;;;;;;2.85;1.10;;;;;15.90;102397.00;;;;5089837;28;20200;-84
2022/02/09 00:44:20;;;;;;;2.25;1.00;;;;;15.90;102397.00;;;;5091195;28;20209;-84
2022/02/09 01:39:37;;;;;;;2.58;1.50;;;;;15.70;102382.00;;;;5059412;28;20209;-84
2022/02/09 01:56:00;;;;;;;2.80;1.65;;;;;15.70;102376.00;;;;5089170;28;20240;-82
2022/02/09 01:58:31;;;;;;;2.70;1.80;;;;;15.70;102378.00;;;;5089948;28;20197;-84
2022/02/09 02:00:58;;;;;;;2.72;1.58;;;;;15.70;102381.00;;;;5073077;28;20285;-84
2022/02/09 02:03:27;;;;;;;2.00;1.80;;;;;15.70;102383.00;;;;5089513;28;20195;-84
2022/02/09 02:05:55;;;;;;;3.22;1.75;;;;;15.70;102376.00;;;;5069681;28;20290;-84
2022/02/09 02:08:23;;;;;;;1.98;1.48;;;;;15.70;102376.00;;;;5084925;28;20197;-84
2022/02/09 02:11:00;;;;;;;1.77;1.42;;;;;15.70;102367.00;;;;5070499;28;20986;-84
2022/02/09 02:13:53;;;;;;;3.15;2.15;;;;;15.70;102370.00;;;;5088490;28;20655;-85
2022/02/09 02:16:28;;;;;;;2.70;2.20;;;;;15.70;102367.00;;;;5087926;28;20580;-84
2022/02/09 02:19:00;;;;;;;1.95;1.70;;;;;15.70;102364.00;;;;5077589;28;20220;-83
2022/02/09 02:21:41;;;;;;;2.78;1.75;;;;;15.70;102362.00;;;;5082135;28;20191;-85
2022/02/09 02:27:14;;;;;;;3.28;2.35;;;;;15.70;102350.00;;;;5063431;28;20202;-84
2022/02/09 02:32:43;;;;;;;2.13;1.75;;;;;15.70;102346.00;;;;5088220;28;20769;-83
2022/02/09 02:35:39;;;;;;;1.98;1.73;;;;;15.70;102343.00;;;;5085630;28;20198;-85
2022/02/09 02:38:43;;;;;;;2.53;1.70;;;;;15.60;102341.00;;;;5088036;28;20190;-85
2022/02/09 02:41:59;;;;;;;3.42;2.20;;;;;15.60;102350.00;;;;5067437;28;20205;-85
2022/02/09 02:47:31;;;;;;;3.42;2.08;;;;;15.70;102332.00;;;;5087630;28;20197;-85
2022/02/09 02:59:14;;;;;;;3.10;2.30;;;;;15.60;102337.00;;;;5088598;28;20204;-84
2022/02/09 03:10:11;;;;;;;3.60;2.80;;;;;15.60;102320.00;;;;5077462;28;20231;-83
2022/02/09 03:12:43;;;;;;;4.82;3.28;;;;;15.60;102321.00;;;;5072701;28;20187;-84
2022/02/09 03:18:08;;;;;;;4.47;3.65;;;;;15.60;102320.00;;;;5073857;28;20229;-84
2022/02/09 03:20:43;;;;;;;4.57;2.90;;;;;15.60;102315.00;;;;5083231;28;20221;-84
2022/02/09 03:23:16;;;;;;;3.35;2.90;;;;;15.60;102309.00;;;;5079871;28;20195;-84
2022/02/09 03:26:07;;;;;;;3.78;3.17;;;;;15.60;102316.00;;;;5090332;28;20738;-85
2022/02/09 03:42:10;;;;;;;4.55;3.55;;;;;15.60;102291.00;;;;5045507;28;20226;-84
2022/02/09 03:42:43;;;;;;;3.72;2.80;;;;;15.60;102305.00;;;;5075623;28;20208;-83
2022/02/09 03:48:24;;;;;;;3.22;2.92;;;;;15.60;102296.00;;;;5058456;28;20214;-84
2022/02/09 03:51:14;;;;;;;3.72;2.83;;;;;15.60;102300.00;;;;5079119;28;20250;-85
2022/02/09 03:53:57;;;;;;;3.15;2.78;;;;;15.60;102298.00;;;;5070932;28;20199;-85
2022/02/09 03:56:28;;;;;;;3.38;2.80;;;;;15.60;102288.00;;;;5083341;28;20190;-84
2022/02/09 03:58:56;;;;;;;2.95;2.53;;;;;15.60;102293.00;;;;5092096;28;20259;-85
2022/02/09 04:01:30;;;;;;;2.20;1.92;;;;;15.60;102290.00;;;;5091881;28;20205;-85
2022/02/09 04:03:57;;;;;;;2.72;2.05;;;;;15.60;102296.00;;;;5092155;28;20187;-84
2022/02/09 04:06:25;;;;;;;2.25;1.95;;;;;15.50;102293.00;;;;5085157;28;20197;-86
2022/02/09 04:08:56;;;;;;;2.80;1.75;;;;;15.50;102292.00;;;;5071873;28;20221;-85
2022/02/09 04:11:29;;;;;;;2.30;1.92;;;;;15.50;102292.00;;;;5082709;28;20233;-85
2022/02/09 04:14:01;;;;;;;2.33;1.90;;;;;15.50;102286.00;;;;5091055;28;20194;-84
2022/02/09 04:16:43;;;;;;;2.35;1.80;;;;;15.50;102296.00;;;;5087702;28;20203;-84
2022/02/09 04:19:22;;;;;;;2.10;1.90;;;;;15.50;102282.00;;;;5076398;28;20224;-85
2022/02/09 04:38:32;;;;;;;2.35;2.15;;;;;15.40;102278.00;;;;5091754;28;20224;-86
2022/02/09 04:44:06;;;;;;;2.25;2.05;;;;;15.40;102283.00;;;;5091375;28;20195;-83
2022/02/09 04:49:39;;;;;;;2.58;2.38;;;;;15.40;102282.00;;;;5071826;28;20198;-85
2022/02/09 04:52:21;;;;;;;2.35;2.15;;;;;15.40;102274.00;;;;5088291;28;20585;-84
2022/02/09 04:54:53;;;;;;;2.70;2.50;;;;;15.40;102273.00;;;;5089682;28;20275;-84
2022/02/09 04:57:32;;;;;;;3.03;2.72;;;;;15.40;102286.00;;;;5091358;28;20724;-84
2022/02/09 05:00:14;;;;;;;2.85;2.65;;;;;15.40;102279.00;;;;5090250;28;20202;-84
2022/02/09 05:22:17;;;;;;;2.55;2.33;;;;;15.20;102280.00;;;;5086275;28;20209;-84
2022/02/09 05:24:59;;;;;;;2.50;2.30;;;;;15.20;102273.00;;;;5083996;28;20659;-82
2022/02/09 05:27:37;;;;;;;3.38;2.20;;;;;15.20;102275.00;;;;5090186;28;20198;-83
2022/02/09 05:30:08;;;;;;;2.22;2.03;;;;;15.20;102266.00;;;;5081007;28;20210;-84
2022/02/09 05:32:35;;;;;;;2.30;2.10;;;;;15.20;102273.00;;;;5069633;28;20723;-84
2022/02/09 05:35:02;;;;;;;2.10;1.88;;;;;15.30;102268.00;;;;5088316;28;20265;-85
2022/02/09 05:37:31;;;;;;;1.73;1.63;;;;;15.20;102260.00;;;;5089455;28;20198;-85
2022/02/09 05:39:58;;;;;;;2.03;1.83;;;;;15.30;102267.00;;;;5090672;28;20191;-85
2022/02/09 05:42:26;;;;;;;2.63;2.42;;;;;15.30;102263.00;;;;5088045;28;20731;-84
2022/02/09 05:44:53;;;;;;;3.35;1.80;;;;;15.20;102260.00;;;;5084104;28;20252;-84
2022/02/09 05:47:59;;;;;;;2.90;2.40;;;;;15.30;102259.00;;;;5069698;28;20199;-83
2022/02/09 05:50:30;;;;;;;2.72;2.53;;;;;15.30;102266.00;;;;5072949;28;20224;-85
2022/02/09 05:53:10;;;;;;;3.33;2.72;;;;;15.20;102268.00;;;;5069253;28;20199;-83
2022/02/09 05:55:49;;;;;;;2.53;2.33;;;;;15.20;102265.00;;;;5081667;28;20239;-84
2022/02/09 05:58:36;;;;;;;3.00;2.67;;;;;15.20;102263.00;;;;5089620;28;20230;-84
2022/02/09 06:01:05;;;;;;;3.35;2.92;;;;;15.20;102268.00;;;;5074173;28;20752;-85
2022/02/09 06:03:33;;;;;;;3.45;2.17;;;;;15.20;102264.00;;;;5078784;28;20204;-83
2022/02/09 06:06:00;;;;;;;4.07;2.72;;;;;15.20;102255.00;;;;5074243;28;20209;-84
2022/02/09 06:08:30;;;;;;;2.70;2.50;;;;;15.20;102259.00;;;;5089189;28;21089;-83
2022/02/09 06:11:10;;;;;;;3.22;2.80;;;;;15.20;102255.00;;;;5075024;28;20234;-85
2022/02/09 06:13:54;;;;;;;3.28;2.97;;;;;15.20;102250.00;;;;5075700;28;20199;-85
2022/02/09 06:19:41;;;;;;;3.00;2.70;;;;;15.10;102260.00;;;;5087846;28;20620;-84
2022/02/09 06:22:09;;;;;;;2.67;2.45;;;;;15.10;102257.00;;;;5074223;28;20193;-84
2022/02/09 06:24:41;;;;;;;2.55;2.35;;;;;15.10;102274.00;;;;5088326;28;20187;-85
2022/02/09 06:27:09;;;;;;;2.60;2.40;;;;;15.10;102256.00;;;;5082780;28;20236;-83
2022/02/09 06:29:37;;;;;;;3.03;2.65;;;;;15.10;102264.00;;;;5087633;28;20281;-83
2022/02/09 06:32:08;;;;;;;3.83;2.47;;;;;15.10;102261.00;;;;5083831;28;20626;-81
2022/02/09 06:34:38;;;;;;;2.50;2.30;;;;;15.10;102259.00;;;;5074873;28;20277;-84
2022/02/09 06:37:14;;;;;;;2.58;2.33;;;;;15.20;102258.00;;;;5077855;28;20202;-84
2022/02/09 06:39:46;;;;;;;3.58;2.45;;;;;15.10;102258.00;;;;5082850;28;20668;-85
2022/02/09 06:42:15;;;;;;;2.72;2.25;;;;;15.10;102255.00;;;;5078696;28;20193;-84
2022/02/09 06:44:43;;;;;;;3.03;2.58;;;;;15.10;102268.00;;;;5088830;28;20205;-84
2022/02/09 06:47:10;;;;;;;2.35;2.08;;;;;15.10;102260.00;;;;5069518;28;20195;-85
2022/02/09 06:49:40;;;;;;;2.45;2.20;;;;;15.10;102260.00;;;;5077334;28;20198;-83
2022/02/09 06:52:08;;;;;;;2.60;2.40;;;;;15.10;102251.00;;;;5084233;28;20217;-82
2022/02/09 06:54:44;;;;;;;2.70;2.45;;;;;15.10;102248.00;;;;5088549;28;20191;-84
2022/02/09 06:57:26;;;;;;;2.45;2.25;;;;;15.10;102253.00;;;;5069019;28;20230;-84
2022/02/09 06:59:53;;;;;;;4.20;2.67;;;;;15.10;102243.00;;;;5068625;28;20609;-83
2022/02/09 07:02:20;;;;;;;2.72;2.50;;;;;15.10;102253.00;;;;5074864;28;20198;-83
2022/02/09 07:04:49;;;;;;;4.03;2.47;;;;;15.10;102246.00;;;;5088026;28;20210;-83
2022/02/09 07:07:17;;;;;;;2.25;2.05;;;;;15.10;102255.00;;;;5073646;28;20664;-84
2022/02/09 07:09:44;;;;;;;3.63;3.10;;;;;15.10;102243.00;;;;5080987;28;20289;-83
2022/02/09 07:12:13;;;;;;;2.72;2.38;;;;;15.00;102249.00;;;;5084315;28;20237;-84
2022/02/09 07:14:40;;;;;;;3.38;3.08;;;;;15.00;102248.00;;;;5075395;28;20202;-85
2022/02/09 07:17:08;;;;;;;3.10;2.50;;;;;15.00;102249.00;;;;5076613;28;20191;-83
2022/02/09 07:19:37;;;;;;;3.03;2.72;;;;;15.00;102257.00;;;;5080888;28;20296;-85
2022/02/09 07:22:06;;;;;;;2.88;2.58;;;;;15.00;102253.00;;;;5080069;28;20660;-82
2022/02/09 07:24:33;;;;;;;3.63;2.85;;;;;15.00;102259.00;;;;5086414;28;20230;-83
2022/02/09 07:27:25;;;;;;;4.30;3.17;;;;;15.00;102262.00;;;;5086629;28;20676;-82
2022/02/09 07:29:53;;;;;;;2.60;2.30;;;;;15.00;102248.00;;;;5086609;28;20554;-84
2022/02/09 07:32:21;;;;;;;8.95;3.47;;;;;15.00;102259.00;;;;5081855;28;20191;-83
2022/02/09 07:34:49;;;;;;;3.50;2.35;;;;;15.00;102265.00;;;;5088073;28;20202;-83
2022/02/09 07:37:16;;;;;;;2.70;2.50;;;;;15.00;102261.00;;;;5082125;28;20217;-82
2022/02/09 07:39:43;;;;;;;2.85;2.45;;;;;15.00;102260.00;;;;5076248;28;20202;-83
2022/02/09 07:42:13;;;;;;;2.80;2.58;;;;;15.00;102257.00;;;;5078501;28;20210;-82
2022/02/09 07:44:58;;;;;;;2.72;2.25;;;;;15.00;102261.00;;;;5081066;28;20198;-82
2022/02/09 07:47:44;;;;;;;2.60;2.28;;;;;15.00;102263.00;;;;5078298;28;20230;-82
2022/02/09 07:50:36;;;;;;;5.28;2.25;;;;;15.00;102262.00;;;;5078955;28;20652;-83
2022/02/09 07:53:10;;;;;;;2.30;2.10;;;;;15.00;102252.00;;;;5079289;28;20194;-87
2022/02/09 07:55:38;;;;;;;2.67;1.77;;;;;15.00;102257.00;;;;5080470;28;20197;-84
2022/02/09 07:58:06;;;;;;;2.42;2.22;;;;;15.00;102260.00;;;;5081446;28;20471;-84
2022/02/09 08:00:34;;;;;;;2.78;1.98;;;;;15.00;102262.00;;;;5085073;28;20198;-83
2022/02/09 08:03:04;;;;;;;2.42;2.22;;;;;15.00;102258.00;;;;5086313;28;20202;-83
2022/02/09 08:05:32;;;;;;;3.00;2.33;;;;;15.10;102263.00;;;;5088610;28;20202;-84
2022/02/09 08:08:00;;;;;;;3.53;2.08;;;;;15.00;102260.00;;;;5078952;28;20672;-84
2022/02/09 08:10:37;;;;;;;2.67;2.42;;;;;15.10;102259.00;;;;5084908;28;20285;-83
2022/02/09 08:30:03;;;;;;;3.28;2.97;;;;;15.10;102267.00;;;;5078726;28;20623;-84
2022/02/09 08:32:42;;;;;;;3.88;3.25;;;;;15.10;102264.00;;;;5087576;28;20599;-85
2022/02/09 08:35:12;;;;;;;4.13;3.70;;;;;15.00;102253.00;;;;5069795;28;20190;-84
2022/02/09 08:37:39;;;;;;;4.88;4.38;;;;;15.10;102248.00;;;;5077910;28;20202;-84
2022/02/09 08:40:10;;;;;;;4.72;3.75;;;;;15.10;102245.00;;;;5088502;28;20198;-82
2022/02/09 08:42:38;;;;;;;4.15;3.35;;;;;15.10;102254.00;;;;5087161;28;20198;-84
2022/02/09 08:45:06;;;;;;;3.90;3.30;;;;;15.10;102251.00;;;;5083777;28;20203;-83
2022/02/09 08:47:34;;;;;;;4.25;3.65;;;;;15.10;102257.00;;;;5088528;28;20203;-84
2022/02/09 08:50:01;;;;;;;9.77;3.70;;;;;15.10;102259.00;;;;5087185;28;20267;-85
2022/02/09 08:52:30;;;;;;;4.38;3.78;;;;;15.10;102256.00;;;;5090454;28;20221;-83
2022/02/09 08:54:58;;;;;;;3.80;3.30;;;;;15.10;102248.00;;;;5089774;28;20190;-83
2022/02/09 08:57:27;;;;;;;3.83;3.10;;;;;15.10;102257.00;;;;5085995;28;20729;-84
2022/02/09 08:59:55;;;;;;;4.43;3.95;;;;;15.10;102261.00;;;;5090116;28;20657;-84
2022/02/09 09:02:30;;;;;;;3.90;3.50;;;;;15.10;102254.00;;;;5091616;28;20205;-84
2022/02/09 09:05:08;;;;;;;3.38;2.95;;;;;15.20;102253.00;;;;5096195;28;20199;-84
2022/02/09 09:07:38;;;;;;;3.80;3.15;;;;;15.20;102252.00;;;;5090300;28;20193;-85
2022/02/09 09:10:14;;;;;;;3.83;3.25;;;;;15.20;102260.00;;;;5089529;28;20222;-84
2022/02/09 10:02:50;;;;;;;4.30;3.45;;;;;15.60;102269.00;;;;5088202;28;20223;-80
2022/02/09 10:05:44;;;;;;;4.18;3.40;;;;;15.60;102264.00;;;;5089598;28;20209;-81
2022/02/09 10:31:36;;;;;;;4.90;3.72;;;;;15.90;102271.00;;;;5089435;28;20233;-82
2022/02/09 10:34:07;;;;;;;6.35;4.38;;;;;15.90;102267.00;;;;5083944;28;20263;-81
2022/02/09 10:36:47;;;;;;;5.50;4.28;;;;;15.90;102263.00;;;;5086923;28;20190;-81
2022/02/09 10:39:18;;;;;;;5.20;4.32;;;;;16.00;102263.00;;;;5077812;28;20692;-81
2022/02/09 10:41:56;;;;;;;4.68;3.75;;;;;16.00;102273.00;;;;5079497;28;20190;-81
2022/02/09 10:44:25;;;;;;;4.68;4.13;;;;;16.10;102267.00;;;;5081233;28;20202;-80
2022/02/09 10:46:56;;;;;;;4.40;3.67;;;;;16.10;102266.00;;;;5077262;28;20250;-79
2022/02/09 10:49:28;;;;;;;5.68;4.28;;;;;16.10;102276.00;;;;5087902;28;20202;-78
2022/02/09 10:52:06;;;;;;;6.57;4.13;;;;;16.10;102260.00;;;;5076878;28;20219;-79
2022/02/09 10:54:35;;;;;;;5.35;4.10;;;;;16.10;102260.00;;;;5084710;28;20190;-78
2022/02/09 10:57:07;;;;;;;5.00;4.43;;;;;16.20;102263.00;;;;5086013;28;20217;-78
2022/02/09 10:59:37;;;;;;;6.72;4.45;;;;;16.20;102258.00;;;;5081747;28;20224;-79
2022/02/09 11:02:14;;;;;;;4.63;4.10;;;;;16.20;102264.00;;;;5078287;28;20749;-81
2022/02/09 11:04:42;;;;;;;5.40;4.35;;;;;16.30;102270.00;;;;5088998;28;20964;-81
2022/02/09 11:07:10;;;;;;;5.68;4.47;;;;;16.40;102275.00;;;;5078142;28;20191;-80
2022/02/09 11:09:37;;;;;;;5.15;4.65;;;;;16.40;102279.00;;;;5087846;28;20206;-80
2022/02/09 11:12:06;;;;;;;5.13;4.38;;;;;16.40;102283.00;;;;5088520;28;20229;-81
2022/02/09 11:14:33;;;;;;;4.93;4.32;;;;;16.40;102281.00;;;;5087788;28;20189;-81
2022/02/09 11:17:04;;;;;;;5.80;4.10;;;;;16.50;102294.00;;;;5107690;28;20193;-80
2022/02/09 11:19:36;;;;;;;4.63;3.88;;;;;16.50;102292.00;;;;5077093;28;20261;-80
2022/02/09 11:22:06;;;;;;;5.03;3.95;;;;;16.60;102289.00;;;;5083647;28;20194;-80
2022/02/09 11:24:41;;;;;;;7.55;4.70;;;;;16.60;102291.00;;;;5073724;28;20230;-80
2022/02/09 11:27:13;;;;;;;5.88;4.85;;;;;16.60;102298.00;;;;5083007;28;20284;-80
2022/02/09 11:29:47;;;;;;;5.55;4.50;;;;;16.60;102301.00;;;;5086885;28;20267;-81
2022/02/09 11:32:23;;;;;;;6.25;4.50;;;;;16.60;102295.00;;;;5082942;28;20309;-81
2022/02/09 11:35:17;;;;;;;5.45;4.15;;;;;16.50;102298.00;;;;5077898;28;20202;-80
2022/02/09 11:37:52;;;;;;;4.85;4.22;;;;;16.60;102291.00;;;;5078743;28;20629;-80
2022/02/09 11:40:28;;;;;;;5.82;4.30;;;;;16.60;102286.00;;;;5074552;28;20194;-81
2022/02/09 11:43:03;;;;;;;7.45;4.47;;;;;16.70;102287.00;;;;5079282;28;20289;-80
2022/02/09 11:46:03;;;;;;;7.03;5.15;;;;;16.70;102294.00;;;;5087879;28;20198;-81
2022/02/09 11:49:03;;;;;;;4.70;4.00;;;;;16.90;102281.00;;;;5087417;28;20198;-80
2022/02/09 11:51:51;;;;;;;5.40;3.80;;;;;16.90;102288.00;;;;5085297;28;20221;-81
2022/02/09 11:54:43;;;;;;;5.03;4.15;;;;;16.90;102292.00;;;;5082896;28;20920;-81
2022/02/09 11:57:27;;;;;;;8.20;4.13;;;;;17.00;102285.00;;;;5085854;28;20285;-81
2022/02/09 12:00:22;;;;;;;4.90;3.80;;;;;16.80;102282.00;;;;5074439;28;20583;-81
2022/02/09 12:12:01;;;;;;;4.07;3.67;;;;;16.80;102265.00;;;;5054351;28;20368;-80
2022/02/09 12:14:56;;;;;;;5.38;4.07;;;;;16.90;102262.00;;;;5067415;28;20710;-79
2022/02/09 12:17:36;;;;;;;5.60;4.22;;;;;17.00;102260.00;;;;5073201;28;20195;-80
2022/02/09 12:20:14;;;;;;;4.97;3.75;;;;;17.00;102261.00;;;;5084886;28;20229;-80
2022/02/09 12:22:46;;;;;;;3.85;3.33;;;;;17.00;102249.00;;;;5080177;28;20284;-80
2022/02/09 12:25:15;;;;;;;5.82;4.80;;;;;17.00;102255.00;;;;5074425;28;20206;-79
2022/02/09 12:27:49;;;;;;;4.85;3.95;;;;;16.90;102254.00;;;;5076378;28;20202;-81
2022/02/09 12:30:21;;;;;;;6.03;5.05;;;;;17.00;102256.00;;;;5088905;28;20241;-83
2022/02/09 12:32:49;;;;;;;4.88;4.03;;;;;17.00;102250.00;;;;5086319;28;20222;-83
2022/02/09 12:35:16;;;;;;;5.28;4.78;;;;;17.00;102249.00;;;;5089363;28;20198;-81
2022/02/09 12:37:45;;;;;;;5.70;4.63;;;;;17.00;102251.00;;;;5076961;28;20195;-81
2022/02/09 12:40:17;;;;;;;5.20;4.25;;;;;17.00;102243.00;;;;5083076;28;20202;-83
2022/02/09 12:42:47;;;;;;;6.55;5.47;;;;;16.90;102247.00;;;;5091184;28;20340;-81
2022/02/09 12:45:16;;;;;;;5.15;4.35;;;;;16.90;102240.00;;;;5086932;28;20205;-81
2022/02/09 12:47:45;;;;;;;4.72;4.20;;;;;16.90;102246.00;;;;5090187;28;20191;-82
2022/02/09 12:50:16;;;;;;;5.72;4.93;;;;;16.90;102243.00;;;;5086612;28;20191;-82
2022/02/09 12:52:45;;;;;;;7.85;4.70;;;;;16.90;102249.00;;;;5076116;28;20215;-81
2022/02/09 12:55:17;;;;;;;4.70;4.18;;;;;16.90;102247.00;;;;5082231;28;20195;-82
2022/02/09 12:57:47;;;;;;;5.63;5.03;;;;;16.90;102243.00;;;;5081474;28;20186;-83
2022/02/09 13:00:33;;;;;;;5.40;4.60;;;;;16.80;102235.00;;;;5086032;28;20222;-83
2022/02/09 13:03:04;;;;;;;5.90;4.63;;;;;16.80;102244.00;;;;5076797;28;20202;-84
2022/02/09 13:05:33;;;;;;;5.32;4.60;;;;;16.80;102242.00;;;;5075226;28;20209;-82
2022/02/09 13:08:03;;;;;;;5.18;4.65;;;;;16.80;102243.00;;;;5081189;28;20190;-83
2022/02/09 13:10:33;;;;;;;5.22;4.20;;;;;16.80;102244.00;;;;5088947;28;20202;-83
2022/02/09 13:13:06;;;;;;;5.57;4.97;;;;;16.80;102245.00;;;;5082431;28;20219;-84
2022/02/09 13:15:37;;;;;;;4.35;3.85;;;;;16.80;102245.00;;;;5080770;28;20203;-83
2022/02/09 13:18:30;;;;;;;5.35;4.00;;;;;16.80;102241.00;;;;5082228;28;20709;-83
2022/02/09 13:24:08;;;;;;;10.38;4.43;;;;;16.80;102233.00;;;;5021475;28;20665;-83
2022/02/09 14:04:20;;;;;;;4.88;3.80;;;;;16.60;102232.00;;;;5080297;28;20216;-82
2022/02/09 14:53:31;;;;;;;3.70;3.17;;;;;16.70;102225.00;;;;5078111;28;20233;-84
2022/02/09 14:56:06;;;;;;;3.83;3.22;;;;;16.70;102226.00;;;;5068738;28;20619;-82
2022/02/09 14:58:39;;;;;;;4.13;3.35;;;;;16.60;102218.00;;;;5080919;28;20242;-81
2022/02/09 15:01:10;;;;;;;3.78;3.15;;;;;16.60;102219.00;;;;5077425;28;20190;-83
2022/02/09 15:03:52;;;;;;;4.40;3.55;;;;;16.60;102218.00;;;;5079632;28;20194;-82
2022/02/09 15:06:46;;;;;;;4.70;3.63;;;;;16.60;102225.00;;;;5078792;28;20210;-84
2022/02/09 15:09:14;;;;;;;3.58;2.97;;;;;16.60;102226.00;;;;5075836;28;20680;-84
2022/02/09 15:11:53;;;;;;;3.35;2.72;;;;;16.60;102223.00;;;;5076262;28;20221;-84
2022/02/09 15:14:29;;;;;;;5.32;2.97;;;;;16.60;102228.00;;;;5075966;28;20193;-83
2022/02/09 15:17:08;;;;;;;4.57;3.35;;;;;16.60;102231.00;;;;5087828;28;20203;-83
2022/02/09 15:20:05;;;;;;;3.10;2.80;;;;;16.60;102231.00;;;;5075273;28;20214;-83
2022/02/09 15:22:34;;;;;;;3.67;2.78;;;;;16.50;102239.00;;;;5081503;28;20202;-83
2022/02/09 15:25:09;;;;;;;3.33;2.55;;;;;16.50;102232.00;;;;5073733;28;20201;-83
2022/02/09 15:27:37;;;;;;;4.35;3.15;;;;;16.50;102234.00;;;;5087755;28;20609;-83
2022/02/09 15:30:06;;;;;;;3.92;2.47;;;;;16.50;102235.00;;;;5088474;28;20195;-83
2022/02/09 15:32:37;;;;;;;4.88;3.03;;;;;16.50;102235.00;;;;5085677;28;20264;-83
2022/02/09 15:35:12;;;;;;;4.82;2.78;;;;;16.50;102235.00;;;;5088649;28;20212;-81
2022/02/09 15:37:46;;;;;;;3.78;2.83;;;;;16.40;102242.00;;;;5079274;28;20186;-80
2022/02/09 15:40:26;;;;;;;4.53;3.38;;;;;16.40;102231.00;;;;5081961;28;20204;-80
2022/02/09 15:43:06;;;;;;;7.13;3.47;;;;;16.40;102237.00;;;;5086293;28;20198;-81
2022/02/09 15:56:49;;;;;;;4.22;2.80;;;;;16.30;102231.00;;;;5085464;28;20197;-78
2022/02/09 15:59:38;;;;;;;4.63;3.13;;;;;16.30;102234.00;;;;5077976;28;20194;-80
2022/02/09 16:24:11;;;;;;;5.55;3.65;;;;;16.20;102225.00;;;;5088855;28;20208;-78
2022/02/09 16:38:09;;;;;;;5.03;3.75;;;;;16.10;102229.00;;;;5086618;28;20212;-78
2022/02/09 16:46:17;;;;;;;4.50;3.72;;;;;16.00;102223.00;;;;5087598;28;20687;-79
2022/02/09 16:48:52;;;;;;;4.95;3.78;;;;;16.10;102224.00;;;;5091498;28;20651;-77
2022/02/09 16:51:22;;;;;;;4.50;3.70;;;;;16.10;102221.00;;;;5083942;28;20198;-78
2022/02/09 16:56:54;;;;;;;4.90;4.38;;;;;16.10;102221.00;;;;5076697;28;20198;-78
2022/02/09 17:18:49;;;;;;;5.70;4.25;;;;;16.10;102212.00;;;;5084892;28;20709;-80
2022/02/09 17:21:18;;;;;;;7.55;4.90;;;;;16.10;102228.00;;;;5077957;28;20740;-79
2022/02/09 17:23:45;;;;;;;4.55;4.13;;;;;16.20;102214.00;;;;5080424;28;20198;-79
2022/02/09 17:26:15;;;;;;;5.65;4.30;;;;;16.20;102220.00;;;;5081255;28;20221;-81
2022/02/09 17:28:42;;;;;;;5.35;4.38;;;;;16.20;102218.00;;;;5072525;28;20206;-81
2022/02/09 17:31:24;;;;;;;5.43;4.40;;;;;16.20;102216.00;;;;5089543;28;20194;-81
2022/02/09 17:34:07;;;;;;;6.75;3.97;;;;;16.20;102221.00;;;;5090230;28;20264;-81
2022/02/09 17:36:46;;;;;;;4.68;3.88;;;;;16.20;102217.00;;;;5079751;28;20194;-82
2022/02/09 17:53:21;;;;;;;4.75;4.00;;;;;16.20;102210.00;;;;5076635;28;20228;-82
2022/02/09 17:53:25;;;;;;;7.03;4.70;;;;;16.10;102207.00;;;;5085645;28;20315;-81
2022/02/09 17:56:02;;;;;;;6.50;3.90;;;;;16.10;102206.00;;;;5080598;28;20186;-81
2022/02/09 17:58:39;;;;;;;5.82;4.32;;;;;16.10;102205.00;;;;5085578;28;20571;-81
2022/02/09 18:01:06;;;;;;;5.55;3.85;;;;;16.10;102198.00;;;;5084947;28;20615;-81
2022/02/09 18:03:35;;;;;;;6.60;4.47;;;;;16.10;102190.00;;;;5080212;28;20618;-83
2022/02/09 18:06:14;;;;;;;5.40;3.55;;;;;16.10;102206.00;;;;5075620;28;20202;-81
2022/02/09 18:08:49;;;;;;;6.38;4.20;;;;;16.10;102198.00;;;;5077256;28;20285;-84
2022/02/09 18:11:28;;;;;;;4.90;3.75;;;;;16.10;102193.00;;;;5080075;28;20190;-81
2022/02/09 18:14:24;;;;;;;6.18;4.28;;;;;16.10;102198.00;;;;5085296;28;20249;-84
2022/02/09 18:25:18;;;;;;;4.97;2.83;;;;;16.00;102193.00;;;;5081745;28;20209;-84
2022/02/09 18:30:41;;;;;;;4.53;3.30;;;;;16.00;102181.00;;;;5085565;28;20276;-84
2022/02/09 18:39:06;;;;;;;3.38;3.03;;;;;16.00;102185.00;;;;5083872;28;20192;-84
2022/02/09 18:44:26;;;;;;;3.65;2.75;;;;;16.00;102183.00;;;;5085948;28;20579;-84
2022/02/09 19:03:32;;;;;;;5.93;2.78;;;;;15.90;102156.00;;;;5073128;28;20244;-83
2022/02/09 19:06:05;;;;;;;4.55;2.45;;;;;15.90;102152.00;;;;5086851;28;20198;-83
2022/02/09 19:08:53;;;;;;;4.93;2.67;;;;;15.90;102154.00;;;;5082445;28;20195;-82
2022/02/09 19:14:21;;;;;;;3.05;2.20;;;;;15.90;102154.00;;;;5075426;28;20296;-82
2022/02/09 19:17:04;;;;;;;3.42;1.90;;;;;15.90;102150.00;;;;5084120;28;20198;-83
2022/02/09 19:30:44;;;;;;;3.58;2.00;;;;;15.90;102145.00;;;;4981529;28;20233;-84
2022/02/09 19:47:07;;;;;;;5.53;3.10;;;;;16.00;102145.00;;;;5011498;28;20212;-83
2022/02/09 19:49:53;;;;;;;3.60;2.65;;;;;16.00;102140.00;;;;5088681;28;20240;-84
2022/02/09 19:52:33;;;;;;;6.57;3.10;;;;;16.00;102146.00;;;;5085920;28;20209;-84
2022/02/09 19:55:19;;;;;;;5.88;3.00;;;;;16.00;102141.00;;;;5086197;28;20194;-84
2022/02/09 19:57:51;;;;;;;4.65;3.10;;;;;16.00;102143.00;;;;5088748;28;20688;-84
2022/02/09 20:00:21;;;;;;;6.15;3.33;;;;;16.00;102139.00;;;;5084677;28;20190;-84
2022/02/09 20:02:49;;;;;;;4.63;3.20;;;;;16.00;102138.00;;;;5081452;28;20202;-84
2022/02/09 20:05:19;;;;;;;4.85;3.05;;;;;16.00;102135.00;;;;5081471;28;20195;-85
2022/02/09 20:07:46;;;;;;;4.38;3.15;;;;;16.00;102133.00;;;;5078382;28;20246;-85
2022/02/09 20:10:14;;;;;;;7.53;2.75;;;;;16.00;102143.00;;;;5087068;28;20234;-85
2022/02/09 20:12:42;;;;;;;4.30;3.10;;;;;15.90;102139.00;;;;5083124;28;20285;-85
2022/02/09 20:15:13;;;;;;;7.15;3.38;;;;;15.90;102134.00;;;;5077510;28;20862;-85
2022/02/09 20:17:41;;;;;;;4.35;3.13;;;;;15.90;102135.00;;;;5084511;28;20216;-85
2022/02/09 20:20:13;;;;;;;5.18;3.28;;;;;15.90;102133.00;;;;5071136;28;20273;-85
2022/02/09 20:22:42;;;;;;;6.90;2.72;;;;;15.90;102131.00;;;;5078402;28;20202;-84
2022/02/09 20:25:11;;;;;;;3.85;2.55;;;;;15.90;102131.00;;;;5083696;28;20203;-84
2022/02/09 20:27:39;;;;;;;6.07;2.83;;;;;15.90;102128.00;;;;5081546;28;20191;-85
2022/02/09 20:30:13;;;;;;;4.20;2.70;;;;;15.90;102127.00;;;;5087331;28;20206;-86
2022/02/09 20:32:46;;;;;;;5.18;3.03;;;;;15.90;102133.00;;;;5085012;28;20210;-85
2022/02/09 20:35:15;;;;;;;3.80;2.63;;;;;15.90;102128.00;;;;5090327;28;20194;-85
2022/02/09 20:37:47;;;;;;;3.72;2.42;;;;;15.90;102119.00;;;;5084471;28;20240;-86
2022/02/09 20:40:20;;;;;;;6.32;3.03;;;;;15.90;102112.00;;;;5091273;28;20240;-86
2022/02/09 20:42:53;;;;;;;5.22;2.92;;;;;15.90;102119.00;;;;5091259;28;20698;-86
2022/02/09 20:45:28;;;;;;;4.40;3.10;;;;;15.90;102109.00;;;;5086317;28;20335;-86
2022/02/09 20:48:02;;;;;;;3.03;2.33;;;;;15.90;102109.00;;;;5080154;28;20547;-86
2022/02/09 20:50:32;;;;;;;2.95;2.50;;;;;15.90;102109.00;;;;5092152;28;20633;-86
2022/02/09 20:53:00;;;;;;;7.03;3.20;;;;;15.90;102109.00;;;;5091167;28;20550;-86
2022/02/09 20:55:29;;;;;;;3.95;2.17;;;;;15.90;102106.00;;;;5092057;28;20229;-86
2022/02/09 20:57:58;;;;;;;4.30;2.85;;;;;15.90;102107.00;;;;5087763;28;20194;-86
2022/02/09 21:00:36;;;;;;;5.75;2.85;;;;;15.90;102099.00;;;;5083491;28;20281;-86
2022/02/09 21:03:16;;;;;;;4.38;2.22;;;;;16.00;102102.00;;;;5084035;28;20198;-85
2022/02/09 21:05:52;;;;;;;4.75;2.95;;;;;16.00;102093.00;;;;5071582;28;20191;-85
2022/02/09 21:08:32;;;;;;;4.28;2.80;;;;;16.00;102091.00;;;;5087139;28;20861;-85
2022/02/09 21:11:09;;;;;;;5.32;2.63;;;;;16.00;102085.00;;;;5071416;28;20199;-86
2022/02/09 21:13:47;;;;;;;3.95;2.75;;;;;16.00;102088.00;;;;5084655;28;20226;-86